createdAt,value
2023-04-24T00:00:18.107Z,41.10
2023-04-24T00:01:21.236Z,41.80
2023-04-24T00:02:24.482Z,44.09
2023-04-24T00:03:28.470Z,45.10
2023-04-24T00:04:32.240Z,43.00
2023-04-24T00:05:34.663Z,44.10
2023-04-24T00:06:39.697Z,44.50
2023-04-24T00:07:43.009Z,38.00
2023-04-24T00:08:45.333Z,42.10
2023-04-24T00:09:48.531Z,41.30
2023-04-24T00:10:53.041Z,44.50
2023-04-24T00:11:56.538Z,40.40
2023-04-24T00:12:59.172Z,44.20
2023-04-24T00:14:01.817Z,44.60
2023-04-24T00:15:05.399Z,44.20
2023-04-24T00:16:08.077Z,44.60
2023-04-24T00:17:11.309Z,38.90
2023-04-24T00:18:13.796Z,38.40
2023-04-24T00:19:16.375Z,43.60
2023-04-24T00:20:19.390Z,47.80
2023-04-24T00:21:22.466Z,41.50
2023-04-24T00:22:25.788Z,36.80
2023-04-24T00:23:28.548Z,39.60
2023-04-24T00:24:31.176Z,31.80
2023-04-24T00:25:34.595Z,35.45
2023-04-24T00:26:37.105Z,37.30
2023-04-24T00:27:39.341Z,35.40
2023-04-24T00:28:41.966Z,37.90
2023-04-24T00:29:45.443Z,36.10
2023-04-24T00:30:48.083Z,37.30
2023-04-24T00:31:50.753Z,38.50
2023-04-24T00:32:53.301Z,36.73
2023-04-24T00:33:55.935Z,37.50
2023-04-24T00:34:58.247Z,33.90
2023-04-24T00:36:01.109Z,27.10
2023-04-24T00:37:03.427Z,26.00
2023-04-24T00:38:05.703Z,35.20
2023-04-24T00:39:10.714Z,26.90
2023-04-24T00:40:13.614Z,24.70
2023-04-24T00:41:15.925Z,34.70
2023-04-24T00:42:18.174Z,35.20
2023-04-24T00:43:21.126Z,36.70
2023-04-24T00:44:24.917Z,32.36
2023-04-24T00:45:27.416Z,41.40
2023-04-24T00:46:30.083Z,41.00
2023-04-24T00:47:33.847Z,38.80
2023-04-24T00:48:36.613Z,37.10
2023-04-24T00:49:38.852Z,37.20
2023-04-24T00:50:41.451Z,43.40
2023-04-24T00:51:45.483Z,35.50
2023-04-24T00:52:48.870Z,37.50
2023-04-24T00:53:52.415Z,32.45
2023-04-24T00:54:55.489Z,20.40
2023-04-24T00:55:58.598Z,19.00
2023-04-24T00:57:02.959Z,21.20
2023-04-24T00:58:05.730Z,22.90
2023-04-24T00:59:08.395Z,27.80
2023-04-24T01:00:14.100Z,26.60
2023-04-24T01:01:17.628Z,23.60
2023-04-24T01:02:21.569Z,22.70
2023-04-24T01:03:26.993Z,25.30
2023-04-24T01:04:29.716Z,23.20
2023-04-24T01:05:33.844Z,20.40
2023-04-24T01:06:42.947Z,21.70
2023-04-24T01:07:48.620Z,33.80
2023-04-24T01:08:50.896Z,27.70
2023-04-24T01:09:53.402Z,25.30
2023-04-24T01:10:57.441Z,23.60
2023-04-24T01:12:01.515Z,20.40
2023-04-24T01:13:04.933Z,24.20
2023-04-24T01:14:07.504Z,23.40
2023-04-24T01:15:10.716Z,24.30
2023-04-24T01:16:14.608Z,24.60
2023-04-24T01:17:17.137Z,26.00
2023-04-24T01:18:19.572Z,32.10
2023-04-24T01:19:21.843Z,27.80
2023-04-24T01:20:26.672Z,26.20
2023-04-24T01:21:30.964Z,25.20
2023-04-24T01:22:36.127Z,17.10
2023-04-24T01:23:39.286Z,19.30
2023-04-24T01:24:43.056Z,19.80
2023-04-24T01:25:48.706Z,21.40
2023-04-24T01:26:51.129Z,19.40
2023-04-24T01:27:55.277Z,15.00
2023-04-24T01:28:58.265Z,19.45
2023-04-24T01:30:00.931Z,19.50
2023-04-24T01:31:05.388Z,18.64
2023-04-24T01:32:07.770Z,16.90
2023-04-24T01:33:10.794Z,18.10
2023-04-24T01:34:15.024Z,15.60
2023-04-24T01:35:17.315Z,16.60
2023-04-24T01:36:20.512Z,15.00
2023-04-24T01:37:22.897Z,20.60
2023-04-24T01:38:25.405Z,17.40
2023-04-24T01:39:29.000Z,17.50
2023-04-24T01:40:31.692Z,25.50
2023-04-24T01:41:35.438Z,21.80
2023-04-24T01:42:37.898Z,20.30
2023-04-24T01:43:40.744Z,18.50
2023-04-24T01:44:43.531Z,15.18
2023-04-24T01:45:45.781Z,13.80
2023-04-24T01:46:48.238Z,17.90
2023-04-24T01:47:51.424Z,16.30
2023-04-24T01:48:54.701Z,18.40
2023-04-24T01:49:57.287Z,19.40
2023-04-24T01:51:00.233Z,16.80
2023-04-24T01:52:02.640Z,15.09
2023-04-24T01:53:08.179Z,21.40
2023-04-24T01:54:12.800Z,21.30
2023-04-24T01:55:15.222Z,16.70
2023-04-24T01:56:18.059Z,14.50
2023-04-24T01:57:20.541Z,17.00
2023-04-24T01:58:23.480Z,15.80
2023-04-24T01:59:27.916Z,15.80
2023-04-24T02:00:31.040Z,14.50
2023-04-24T02:01:36.998Z,18.20
2023-04-24T02:02:41.521Z,16.40
2023-04-24T02:03:44.156Z,16.30
2023-04-24T02:04:46.634Z,15.00
2023-04-24T02:05:49.070Z,15.10
2023-04-24T02:06:51.611Z,13.50
2023-04-24T02:07:53.717Z,14.50
2023-04-24T02:08:55.873Z,17.00
2023-04-24T02:09:59.058Z,15.60
2023-04-24T02:11:02.780Z,17.50
2023-04-24T02:12:06.936Z,16.80
2023-04-24T02:13:09.610Z,17.60
2023-04-24T02:14:12.263Z,19.10
2023-04-24T02:15:16.008Z,16.20
2023-04-24T02:16:19.850Z,15.50
2023-04-24T02:17:23.057Z,18.00
2023-04-24T02:18:25.630Z,17.10
2023-04-24T02:19:27.938Z,14.90
2023-04-24T02:20:30.777Z,16.00
2023-04-24T02:21:33.542Z,14.10
2023-04-24T02:22:35.664Z,15.10
2023-04-24T02:23:37.786Z,18.50
2023-04-24T02:24:41.072Z,16.73
2023-04-24T02:25:43.303Z,17.40
2023-04-24T02:26:45.618Z,19.60
2023-04-24T02:27:47.727Z,18.80
2023-04-24T02:28:50.156Z,17.40
2023-04-24T02:29:52.451Z,16.50
2023-04-24T02:30:54.946Z,15.20
2023-04-24T02:31:58.358Z,14.60
2023-04-24T02:33:00.717Z,17.70
2023-04-24T02:34:03.531Z,15.90
2023-04-24T02:35:06.747Z,12.90
2023-04-24T02:36:09.409Z,11.40
2023-04-24T02:37:12.229Z,14.10
2023-04-24T02:38:14.400Z,9.73
2023-04-24T02:39:19.213Z,12.40
2023-04-24T02:40:21.404Z,12.50
2023-04-24T02:41:23.504Z,12.60
2023-04-24T02:42:25.757Z,11.70
2023-04-24T02:43:28.906Z,11.40
2023-04-24T02:44:31.415Z,11.20
2023-04-24T02:45:35.708Z,9.90
2023-04-24T02:46:38.532Z,9.40
2023-04-24T02:47:40.867Z,8.50
2023-04-24T02:48:43.148Z,10.20
2023-04-24T02:49:45.515Z,3.50
2023-04-24T02:50:48.251Z,7.50
2023-04-24T02:51:50.706Z,12.90
2023-04-24T02:52:53.244Z,9.20
2023-04-24T02:53:56.157Z,8.20
2023-04-24T02:54:59.679Z,10.80
2023-04-24T02:56:03.167Z,11.20
2023-04-24T02:57:05.664Z,11.10
2023-04-24T02:58:08.406Z,12.90
2023-04-24T02:59:10.980Z,15.60
2023-04-24T03:00:14.686Z,14.27
2023-04-24T03:01:18.328Z,15.30
2023-04-24T03:02:21.263Z,14.20
2023-04-24T03:03:24.400Z,13.55
2023-04-24T03:04:27.006Z,13.40
2023-04-24T03:05:29.253Z,13.40
2023-04-24T03:06:33.165Z,13.20
2023-04-24T03:07:35.601Z,15.20
2023-04-24T03:08:37.962Z,17.60
2023-04-24T03:09:40.886Z,17.00
2023-04-24T03:10:46.267Z,15.40
2023-04-24T03:11:50.836Z,15.60
2023-04-24T03:12:53.961Z,16.00
2023-04-24T03:13:56.260Z,21.70
2023-04-24T03:14:58.404Z,33.00
2023-04-24T03:16:00.787Z,26.90
2023-04-24T03:17:03.713Z,24.40
2023-04-24T03:18:05.850Z,21.00
2023-04-24T03:19:08.752Z,13.40
2023-04-24T03:20:13.180Z,22.30
2023-04-24T03:21:17.037Z,19.45
2023-04-24T03:22:20.333Z,20.90
2023-04-24T03:23:23.277Z,19.60
2023-04-24T03:24:27.457Z,17.80
2023-04-24T03:25:30.541Z,17.70
2023-04-24T03:26:34.457Z,20.70
2023-04-24T03:27:39.611Z,25.00
2023-04-24T03:28:43.674Z,19.30
2023-04-24T03:29:45.913Z,21.10
2023-04-24T03:30:48.593Z,18.80
2023-04-24T03:31:51.465Z,25.10
2023-04-24T03:32:55.495Z,22.55
2023-04-24T03:33:59.810Z,21.50
2023-04-24T03:35:03.051Z,23.20
2023-04-24T03:36:06.069Z,19.80
2023-04-24T03:37:10.079Z,22.10
2023-04-24T03:38:14.005Z,24.30
2023-04-24T03:39:33.462Z,18.90
2023-04-24T03:40:36.209Z,22.30
2023-04-24T03:41:40.590Z,21.90
2023-04-24T03:42:44.974Z,20.70
2023-04-24T03:43:47.382Z,20.60
2023-04-24T03:44:51.085Z,22.00
2023-04-24T03:45:54.909Z,28.60
2023-04-24T03:46:59.007Z,26.40
2023-04-24T03:48:02.360Z,29.10
2023-04-24T03:49:05.827Z,37.00
2023-04-24T03:50:12.956Z,36.20
2023-04-24T03:51:15.294Z,35.20
2023-04-24T03:52:19.682Z,37.40
2023-04-24T03:53:22.218Z,39.20
2023-04-24T03:54:24.744Z,39.70
2023-04-24T03:55:28.100Z,43.64
2023-04-24T03:56:30.386Z,38.91
2023-04-24T03:57:32.848Z,40.10
2023-04-24T03:58:40.711Z,36.20
2023-04-24T03:59:43.326Z,38.80
2023-04-24T04:00:48.514Z,39.60
2023-04-24T04:01:55.527Z,31.70
2023-04-24T04:02:58.476Z,37.60
2023-04-24T04:04:01.830Z,39.90
2023-04-24T04:05:05.636Z,44.70
2023-04-24T04:06:08.310Z,42.90
2023-04-24T04:07:12.696Z,39.40
2023-04-24T04:08:15.579Z,44.20
2023-04-24T04:09:17.839Z,40.20
2023-04-24T04:10:21.811Z,42.10
2023-04-24T04:11:24.827Z,40.00
2023-04-24T04:12:27.235Z,40.64
2023-04-24T04:13:29.969Z,38.00
2023-04-24T04:14:33.168Z,41.55
2023-04-24T04:15:36.174Z,38.82
2023-04-24T04:16:39.104Z,42.30
2023-04-24T04:17:41.926Z,43.09
2023-04-24T04:18:45.506Z,42.30
2023-04-24T04:19:48.272Z,56.80
2023-04-24T04:20:50.910Z,47.09
2023-04-24T04:21:55.322Z,47.70
2023-04-24T04:22:59.423Z,46.70
2023-04-24T04:24:06.001Z,45.20
2023-04-24T04:25:12.336Z,41.00
2023-04-24T04:26:15.164Z,44.20
2023-04-24T04:27:35.750Z,44.00
2023-04-24T04:28:40.074Z,37.20
2023-04-24T04:29:42.643Z,34.00
2023-04-24T04:30:47.528Z,32.70
2023-04-24T04:31:50.118Z,25.20
2023-04-24T04:32:52.966Z,29.00
2023-04-24T04:33:56.324Z,26.45
2023-04-24T04:34:59.082Z,26.60
2023-04-24T04:36:03.480Z,25.00
2023-04-24T04:37:06.725Z,23.80
2023-04-24T04:38:17.860Z,28.00
2023-04-24T04:39:22.048Z,25.20
2023-04-24T04:40:28.347Z,20.60
2023-04-24T04:41:32.850Z,22.70
2023-04-24T04:42:36.049Z,21.45
2023-04-24T04:43:40.711Z,19.73
2023-04-24T04:44:45.242Z,20.20
2023-04-24T04:45:50.183Z,21.00
2023-04-24T04:46:57.599Z,20.50
2023-04-24T04:48:02.802Z,20.60
2023-04-24T04:49:06.711Z,21.50
2023-04-24T04:50:10.941Z,19.00
2023-04-24T04:51:13.457Z,18.00
2023-04-24T04:52:17.724Z,18.70
2023-04-24T04:53:20.350Z,12.50
2023-04-24T04:54:22.775Z,16.10
2023-04-24T04:55:24.919Z,13.50
2023-04-24T04:56:35.283Z,13.00
2023-04-24T04:57:39.895Z,11.10
2023-04-24T04:58:43.407Z,13.40
2023-04-24T04:59:47.679Z,13.50
2023-04-24T05:00:53.699Z,16.00
2023-04-24T05:02:03.894Z,15.60
2023-04-24T05:03:20.082Z,13.10
2023-04-24T05:04:11.406Z,15.90
2023-04-24T05:05:14.311Z,18.10
2023-04-24T05:06:17.432Z,17.82
2023-04-24T05:07:20.082Z,23.82
2023-04-24T05:08:27.611Z,23.20
2023-04-24T05:09:29.865Z,24.20
2023-04-24T05:10:34.894Z,18.00
2023-04-24T05:11:37.237Z,18.20
2023-04-24T05:12:39.362Z,20.80
2023-04-24T05:13:42.564Z,25.20
2023-04-24T05:14:46.719Z,23.10
2023-04-24T05:15:50.185Z,25.70
2023-04-24T05:16:53.940Z,28.30
2023-04-24T05:17:59.374Z,27.70
2023-04-24T05:19:02.193Z,23.20
2023-04-24T05:20:09.353Z,26.00
2023-04-24T05:21:11.668Z,28.30
2023-04-24T05:22:15.527Z,30.20
2023-04-24T05:23:20.044Z,18.50
2023-04-24T05:24:22.916Z,26.50
2023-04-24T05:25:35.508Z,25.30
2023-04-24T05:26:39.562Z,24.60
2023-04-24T05:27:44.612Z,25.80
2023-04-24T05:28:48.683Z,24.90
2023-04-24T05:29:51.611Z,23.60
2023-04-24T05:30:56.205Z,23.36
2023-04-24T05:32:01.086Z,28.40
2023-04-24T05:33:04.598Z,26.90
2023-04-24T05:34:09.902Z,28.90
2023-04-24T05:35:14.399Z,26.00
2023-04-24T05:36:17.416Z,26.00
2023-04-24T05:37:20.403Z,26.50
2023-04-24T05:38:23.489Z,25.20
2023-04-24T05:39:25.856Z,23.80
2023-04-24T05:40:29.633Z,26.00
2023-04-24T05:41:32.015Z,21.70
2023-04-24T05:42:34.357Z,25.70
2023-04-24T05:43:36.757Z,21.00
2023-04-24T05:44:38.895Z,16.90
2023-04-24T05:45:41.116Z,20.30
2023-04-24T05:46:44.585Z,14.20
2023-04-24T05:47:48.402Z,19.70
2023-04-24T05:48:50.704Z,20.50
2023-04-24T05:49:53.820Z,21.60
2023-04-24T05:50:56.387Z,17.10
2023-04-24T05:51:59.507Z,17.10
2023-04-24T05:53:07.480Z,15.90
2023-04-24T05:54:12.516Z,20.60
2023-04-24T05:55:18.096Z,20.30
2023-04-24T05:56:21.596Z,17.00
2023-04-24T05:57:26.203Z,14.80
2023-04-24T05:58:30.398Z,17.00
2023-04-24T05:59:32.869Z,13.80
2023-04-24T06:00:36.182Z,15.90
2023-04-24T06:01:41.073Z,13.10
2023-04-24T06:02:48.398Z,13.60
2023-04-24T06:03:52.084Z,13.80
2023-04-24T06:04:54.641Z,10.80
2023-04-24T06:05:57.324Z,13.70
2023-04-24T06:07:00.439Z,13.20
2023-04-24T06:08:03.260Z,9.70
2023-04-24T06:09:08.123Z,10.20
2023-04-24T06:10:11.082Z,12.40
2023-04-24T06:11:15.519Z,11.40
2023-04-24T06:12:18.081Z,10.90
2023-04-24T06:13:25.352Z,11.50
2023-04-24T06:14:29.521Z,11.40
2023-04-24T06:15:52.105Z,10.00
2023-04-24T06:16:56.296Z,8.70
2023-04-24T06:18:00.644Z,10.10
2023-04-24T06:19:03.582Z,10.10
2023-04-24T06:20:08.456Z,10.20
2023-04-24T06:21:10.915Z,10.10
2023-04-24T06:22:13.664Z,8.70
2023-04-24T06:23:17.289Z,9.10
2023-04-24T06:24:19.577Z,12.20
2023-04-24T06:25:21.816Z,12.50
2023-04-24T06:26:27.385Z,11.00
2023-04-24T06:27:29.660Z,9.20
2023-04-24T06:28:32.767Z,18.70
2023-04-24T06:29:37.277Z,10.36
2023-04-24T06:30:39.783Z,9.30
2023-04-24T06:31:42.256Z,5.20
2023-04-24T06:32:46.347Z,8.20
2023-04-24T06:33:50.919Z,8.20
2023-04-24T06:34:54.084Z,7.30
2023-04-24T06:35:57.291Z,9.55
2023-04-24T06:37:00.665Z,8.60
2023-04-24T06:38:02.966Z,7.50
2023-04-24T06:39:05.694Z,6.70
2023-04-24T06:40:10.870Z,7.20
2023-04-24T06:41:13.598Z,8.80
2023-04-24T06:42:16.335Z,7.36
2023-04-24T06:43:20.842Z,8.00
2023-04-24T06:44:23.420Z,7.70
2023-04-24T06:45:25.570Z,5.90
2023-04-24T06:46:28.498Z,7.90
2023-04-24T06:47:30.945Z,8.00
2023-04-24T06:48:33.830Z,8.90
2023-04-24T06:49:39.554Z,7.27
2023-04-24T06:50:41.955Z,6.80
2023-04-24T06:51:44.420Z,7.10
2023-04-24T06:52:46.769Z,7.40
2023-04-24T06:53:50.209Z,4.50
2023-04-24T06:54:53.077Z,6.90
2023-04-24T06:55:56.594Z,6.73
2023-04-24T06:57:01.292Z,6.20
2023-04-24T06:58:03.813Z,4.80
2023-04-24T06:59:06.373Z,6.00
2023-04-24T07:00:10.618Z,7.10
2023-04-24T07:01:13.758Z,6.40
2023-04-24T07:02:16.002Z,4.20
2023-04-24T07:03:18.667Z,4.90
2023-04-24T07:04:21.631Z,6.10
2023-04-24T07:05:25.052Z,6.70
2023-04-24T07:06:27.712Z,6.20
2023-04-24T07:07:31.732Z,7.00
2023-04-24T07:08:34.339Z,5.20
2023-04-24T07:09:38.951Z,7.00
2023-04-24T07:10:41.993Z,5.20
2023-04-24T07:11:45.186Z,6.70
2023-04-24T07:12:47.984Z,6.20
2023-04-24T07:13:50.570Z,5.09
2023-04-24T07:14:54.158Z,6.40
2023-04-24T07:15:57.116Z,7.10
2023-04-24T07:17:00.185Z,6.10
2023-04-24T07:18:05.479Z,5.09
2023-04-24T07:19:07.082Z,0.90
2023-04-24T07:20:11.167Z,6.00
2023-04-24T07:21:13.568Z,6.60
2023-04-24T07:22:17.284Z,4.60
2023-04-24T07:23:20.162Z,5.70
2023-04-24T07:24:23.909Z,5.40
2023-04-24T07:25:27.340Z,4.90
2023-04-24T07:26:32.041Z,6.45
2023-04-24T07:27:35.249Z,6.60
2023-04-24T07:28:37.627Z,6.00
2023-04-24T07:29:40.726Z,5.30
2023-04-24T07:30:43.120Z,5.00
2023-04-24T07:31:45.595Z,5.60
2023-04-24T07:32:47.806Z,6.90
2023-04-24T07:33:50.920Z,6.40
2023-04-24T07:34:53.224Z,6.00
2023-04-24T07:35:56.876Z,6.30
2023-04-24T07:36:59.860Z,6.30
2023-04-24T07:38:07.918Z,6.91
2023-04-24T07:39:10.303Z,5.90
2023-04-24T07:40:15.317Z,5.60
2023-04-24T07:41:18.725Z,7.10
2023-04-24T07:42:21.083Z,6.90
2023-04-24T07:43:24.750Z,7.50
2023-04-24T07:44:27.091Z,6.60
2023-04-24T07:45:29.338Z,5.80
2023-04-24T07:46:32.128Z,6.10
2023-04-24T07:47:36.055Z,7.18
2023-04-24T07:48:38.398Z,7.50
2023-04-24T07:49:42.187Z,6.00
2023-04-24T07:50:45.509Z,6.90
2023-04-24T07:51:48.287Z,7.30
2023-04-24T07:52:50.682Z,7.00
2023-04-24T07:53:52.784Z,5.10
2023-04-24T07:54:58.036Z,6.60
2023-04-24T07:56:00.796Z,5.20
2023-04-24T07:57:03.698Z,7.70
2023-04-24T07:58:06.421Z,7.60
2023-04-24T07:59:10.499Z,6.70
2023-04-24T08:00:14.007Z,6.00
2023-04-24T08:01:18.592Z,6.30
2023-04-24T08:02:23.710Z,6.50
2023-04-24T08:03:26.874Z,6.60
2023-04-24T08:04:30.864Z,5.80
2023-04-24T08:05:34.088Z,7.50
2023-04-24T08:06:36.639Z,6.70
2023-04-24T08:07:39.207Z,7.70
2023-04-24T08:08:41.551Z,8.00
2023-04-24T08:09:44.573Z,6.90
2023-04-24T08:10:48.832Z,6.60
2023-04-24T08:11:51.264Z,6.70
2023-04-24T08:12:53.565Z,6.70
2023-04-24T08:13:56.742Z,7.60
2023-04-24T08:14:58.988Z,6.60
2023-04-24T08:16:01.592Z,7.70
2023-04-24T08:17:05.395Z,6.82
2023-04-24T08:18:08.099Z,7.30
2023-04-24T08:19:10.769Z,4.18
2023-04-24T08:20:14.938Z,6.09
2023-04-24T08:21:19.155Z,6.30
2023-04-24T08:22:21.326Z,7.20
2023-04-24T08:23:24.116Z,5.80
2023-04-24T08:24:28.228Z,6.18
2023-04-24T08:25:30.850Z,6.10
2023-04-24T08:26:33.256Z,5.50
2023-04-24T08:27:37.097Z,5.10
2023-04-24T08:28:39.785Z,5.50
2023-04-24T08:29:43.254Z,5.70
2023-04-24T08:30:45.915Z,8.20
2023-04-24T08:31:48.141Z,7.70
2023-04-24T08:32:50.309Z,5.80
2023-04-24T08:33:52.518Z,7.20
2023-04-24T08:34:57.123Z,5.20
2023-04-24T08:36:01.907Z,4.90
2023-04-24T08:37:04.951Z,0.50
2023-04-24T08:38:08.352Z,6.00
2023-04-24T08:39:10.716Z,5.00
2023-04-24T08:40:16.038Z,6.70
2023-04-24T08:41:19.437Z,7.20
2023-04-24T08:42:24.646Z,5.00
2023-04-24T08:43:27.500Z,7.20
2023-04-24T08:44:29.825Z,4.30
2023-04-24T08:45:33.545Z,5.80
2023-04-24T08:46:36.666Z,5.30
2023-04-24T08:47:40.694Z,5.00
2023-04-24T08:48:44.158Z,5.70
2023-04-24T08:49:49.155Z,5.20
2023-04-24T08:50:52.201Z,5.70
2023-04-24T08:51:54.486Z,6.00
2023-04-24T08:52:58.015Z,6.80
2023-04-24T08:54:01.313Z,5.30
2023-04-24T08:55:04.707Z,4.50
2023-04-24T08:56:07.935Z,5.90
2023-04-24T08:57:12.560Z,4.80
2023-04-24T08:58:17.051Z,7.00
2023-04-24T08:59:21.235Z,4.30
2023-04-24T09:00:23.893Z,4.80
2023-04-24T09:01:27.530Z,4.90
2023-04-24T09:02:31.235Z,3.80
2023-04-24T09:03:35.380Z,5.10
2023-04-24T09:04:40.062Z,5.50
2023-04-24T09:05:46.539Z,5.10
2023-04-24T09:06:55.065Z,5.00
2023-04-24T09:07:57.777Z,4.90
2023-04-24T09:09:02.233Z,4.80
2023-04-24T09:10:05.521Z,4.00
2023-04-24T09:11:08.996Z,4.60
2023-04-24T09:12:12.177Z,5.60
2023-04-24T09:13:15.259Z,5.90
2023-04-24T09:14:19.451Z,3.30
2023-04-24T09:15:21.921Z,6.20
2023-04-24T09:16:26.796Z,4.40
2023-04-24T09:17:29.389Z,4.80
2023-04-24T09:18:33.088Z,5.70
2023-04-24T09:19:35.546Z,6.50
2023-04-24T09:21:02.399Z,4.20
2023-04-24T09:22:08.913Z,4.30
2023-04-24T09:23:13.303Z,4.80
2023-04-24T09:24:22.655Z,5.10
2023-04-24T09:25:33.900Z,5.70
2023-04-24T09:26:37.041Z,4.90
2023-04-24T09:27:47.900Z,6.50
2023-04-24T09:28:51.387Z,6.10
2023-04-24T09:29:57.403Z,7.10
2023-04-24T09:31:10.724Z,4.10
2023-04-24T09:32:27.105Z,6.00
2023-04-24T09:33:30.768Z,1.20
2023-04-24T09:34:33.073Z,4.30
2023-04-24T09:35:36.812Z,4.80
2023-04-24T09:36:42.212Z,4.30
2023-04-24T09:37:46.236Z,6.20
2023-04-24T09:38:48.605Z,4.30
2023-04-24T09:40:00.885Z,4.80
2023-04-24T09:41:06.260Z,2.80
2023-04-24T09:42:09.630Z,4.30
2023-04-24T09:43:13.799Z,4.90
2023-04-24T09:44:20.671Z,4.50
2023-04-24T09:45:25.249Z,4.60
2023-04-24T09:46:34.864Z,4.20
2023-04-24T09:47:39.500Z,5.20
2023-04-24T09:48:41.795Z,4.80
2023-04-24T09:49:44.325Z,5.20
2023-04-24T09:50:47.824Z,4.10
2023-04-24T09:51:50.438Z,4.20
2023-04-24T09:53:01.731Z,4.60
2023-04-24T09:54:07.727Z,3.50
2023-04-24T09:55:17.243Z,6.10
2023-04-24T09:56:20.696Z,5.30
2023-04-24T09:57:23.074Z,5.10
2023-04-24T09:58:27.154Z,6.10
2023-04-24T09:59:30.606Z,5.60
2023-04-24T10:00:34.480Z,4.80
2023-04-24T10:01:38.686Z,6.20
2023-04-24T10:02:41.379Z,5.90
2023-04-24T10:03:45.160Z,4.73
2023-04-24T10:04:59.486Z,6.70
2023-04-24T10:06:05.651Z,5.50
2023-04-24T10:07:10.418Z,6.20
2023-04-24T10:08:14.009Z,6.00
2023-04-24T10:09:18.173Z,5.70
2023-04-24T10:10:21.486Z,6.10
2023-04-24T10:11:24.696Z,5.10
2023-04-24T10:12:29.399Z,5.00
2023-04-24T10:13:33.380Z,3.90
2023-04-24T10:14:36.514Z,6.20
2023-04-24T10:15:41.193Z,4.60
2023-04-24T10:16:46.841Z,5.00
2023-04-24T10:17:53.627Z,4.70
2023-04-24T10:18:57.864Z,5.80
2023-04-24T10:20:02.216Z,2.30
2023-04-24T10:21:05.188Z,5.70
2023-04-24T10:22:08.972Z,6.40
2023-04-24T10:23:12.533Z,6.00
2023-04-24T10:24:16.995Z,4.60
2023-04-24T10:25:22.100Z,5.70
2023-04-24T10:26:26.736Z,4.70
2023-04-24T10:27:31.214Z,5.10
2023-04-24T10:28:36.994Z,4.70
2023-04-24T10:29:40.781Z,5.00
2023-04-24T10:30:45.063Z,4.60
2023-04-24T10:31:48.328Z,5.10
2023-04-24T10:32:51.812Z,4.80
2023-04-24T10:33:55.126Z,6.20
2023-04-24T10:34:58.224Z,5.30
2023-04-24T10:36:02.072Z,4.50
2023-04-24T10:37:04.528Z,5.00
2023-04-24T10:38:11.018Z,5.20
2023-04-24T10:39:16.097Z,5.70
2023-04-24T10:40:21.556Z,5.70
2023-04-24T10:41:26.419Z,3.90
2023-04-24T10:42:29.822Z,4.20
2023-04-24T10:43:34.239Z,4.80
2023-04-24T10:44:37.452Z,4.20
2023-04-24T10:45:40.474Z,5.80
2023-04-24T10:46:48.770Z,4.50
2023-04-24T10:48:13.107Z,5.20
2023-04-24T10:49:16.172Z,5.90
2023-04-24T10:50:20.312Z,5.70
2023-04-24T10:51:24.400Z,4.90
2023-04-24T10:52:30.332Z,5.20
2023-04-24T10:53:35.584Z,5.00
2023-04-24T10:54:44.154Z,2.80
2023-04-24T10:55:52.388Z,4.40
2023-04-24T10:57:15.219Z,5.10
2023-04-24T10:58:19.984Z,5.30
2023-04-24T10:59:27.956Z,6.00
2023-04-24T11:00:30.847Z,6.90
2023-04-24T11:01:34.687Z,5.30
2023-04-24T11:02:38.798Z,5.50
2023-04-24T11:03:46.704Z,5.20
2023-04-24T11:04:52.214Z,4.70
2023-04-24T11:05:58.772Z,5.20
2023-04-24T11:07:02.897Z,5.70
2023-04-24T11:08:13.313Z,6.50
2023-04-24T11:09:17.360Z,5.40
2023-04-24T11:10:29.038Z,4.80
2023-04-24T11:11:31.740Z,4.90
2023-04-24T11:12:36.629Z,4.20
2023-04-24T11:14:01.043Z,4.70
2023-04-24T11:15:04.451Z,5.40
2023-04-24T11:16:23.315Z,5.30
2023-04-24T11:17:38.273Z,6.10
2023-04-24T11:18:44.622Z,5.00
2023-04-24T11:19:51.007Z,5.60
2023-04-24T11:20:55.705Z,4.80
2023-04-24T11:23:14.784Z,5.90
2023-04-24T11:24:29.566Z,4.20
2023-04-24T11:25:33.251Z,5.40
2023-04-24T11:26:39.993Z,6.90
2023-04-24T11:27:45.256Z,5.50
2023-04-24T11:28:48.835Z,5.00
2023-04-24T11:30:01.158Z,5.00
2023-04-24T11:31:37.498Z,5.00
2023-04-24T11:32:42.313Z,5.90
2023-04-24T11:33:44.979Z,5.50
2023-04-24T11:34:50.197Z,4.90
2023-04-24T11:35:52.961Z,5.50
2023-04-24T11:36:55.569Z,5.00
2023-04-24T11:39:05.779Z,5.00
2023-04-24T11:40:11.202Z,4.50
2023-04-24T11:41:14.437Z,5.00
2023-04-24T11:42:16.826Z,5.20
2023-04-24T11:43:20.356Z,3.30
2023-04-24T11:44:25.397Z,5.20
2023-04-24T11:45:29.803Z,5.50
2023-04-24T11:46:33.677Z,4.00
2023-04-24T11:47:37.522Z,5.00
2023-04-24T11:48:44.148Z,3.60
2023-04-24T11:49:46.776Z,5.60
2023-04-24T11:50:50.641Z,5.00
2023-04-24T11:52:00.488Z,3.80
2023-04-24T11:53:02.623Z,6.20
2023-04-24T11:54:08.220Z,5.20
2023-04-24T11:55:20.412Z,5.30
2023-04-24T11:56:26.367Z,5.30
2023-04-24T11:57:31.607Z,5.90
2023-04-24T11:58:39.138Z,5.30
2023-04-24T11:59:41.761Z,5.70
2023-04-24T12:00:46.436Z,4.50
2023-04-24T12:01:50.554Z,4.90
2023-04-24T12:03:09.153Z,5.60
2023-04-24T12:04:12.718Z,5.70
2023-04-24T12:05:26.818Z,2.90
2023-04-24T12:06:30.848Z,5.20
2023-04-24T12:07:44.454Z,5.60
2023-04-24T12:08:48.510Z,6.00
2023-04-24T12:09:56.986Z,5.90
2023-04-24T12:11:03.043Z,5.00
2023-04-24T12:12:07.359Z,3.30
2023-04-24T12:13:11.854Z,5.10
2023-04-24T12:14:15.236Z,4.40
2023-04-24T12:15:20.777Z,6.30
2023-04-24T12:16:25.541Z,4.70
2023-04-24T12:17:33.536Z,5.30
2023-04-24T12:18:45.166Z,4.80
2023-04-24T12:19:51.012Z,4.60
2023-04-24T12:20:54.179Z,4.90
2023-04-24T12:22:06.181Z,6.40
2023-04-24T12:23:09.237Z,6.00
2023-04-24T12:24:11.771Z,5.90
2023-04-24T12:25:15.845Z,6.30
2023-04-24T12:26:20.331Z,2.70
2023-04-24T12:27:23.384Z,6.50
2023-04-24T12:28:29.857Z,5.40
2023-04-24T12:29:32.453Z,4.80
2023-04-24T12:30:38.619Z,7.73
2023-04-24T12:31:41.056Z,7.40
2023-04-24T12:32:46.677Z,5.90
2023-04-24T12:33:49.264Z,4.00
2023-04-24T12:34:52.417Z,5.00
2023-04-24T12:35:56.860Z,5.00
2023-04-24T12:37:02.968Z,5.00
2023-04-24T12:38:10.919Z,5.30
2023-04-24T12:39:20.559Z,4.50
2023-04-24T12:40:26.442Z,4.50
2023-04-24T12:41:31.883Z,2.90
2023-04-24T12:42:35.463Z,3.50
2023-04-24T12:43:38.427Z,4.00
2023-04-24T12:44:41.547Z,4.60
2023-04-24T12:45:45.732Z,5.27
2023-04-24T12:46:48.172Z,4.50
2023-04-24T12:47:50.617Z,4.40
2023-04-24T12:48:54.497Z,5.30
2023-04-24T12:49:57.366Z,4.40
2023-04-24T12:51:03.106Z,4.00
2023-04-24T12:52:05.764Z,4.80
2023-04-24T12:53:10.595Z,1.91
2023-04-24T12:54:12.994Z,3.10
2023-04-24T12:55:16.235Z,4.80
2023-04-24T12:56:19.152Z,6.00
2023-04-24T12:57:22.390Z,3.70
2023-04-24T12:58:25.042Z,4.30
2023-04-24T12:59:27.537Z,5.20
2023-04-24T13:00:30.367Z,2.60
2023-04-24T13:01:33.670Z,3.73
2023-04-24T13:02:38.073Z,4.90
2023-04-24T13:03:42.109Z,3.70
2023-04-24T13:05:59.735Z,4.20
2023-04-24T13:07:02.573Z,5.90
2023-04-24T13:08:05.971Z,3.40
2023-04-24T13:09:08.402Z,4.90
2023-04-24T13:10:11.840Z,5.00
2023-04-24T13:11:15.206Z,6.10
2023-04-24T13:12:18.759Z,4.40
2023-04-24T13:13:22.611Z,4.90
2023-04-24T13:14:24.985Z,4.40
2023-04-24T13:15:27.351Z,4.00
2023-04-24T13:16:31.621Z,4.10
2023-04-24T13:17:34.066Z,4.50
2023-04-24T13:18:36.472Z,3.30
2023-04-24T13:19:41.726Z,4.90
2023-04-24T13:20:44.957Z,6.70
2023-04-24T13:21:50.379Z,4.00
2023-04-24T13:22:52.761Z,5.00
2023-04-24T13:23:56.246Z,5.30
2023-04-24T13:24:58.662Z,5.00
2023-04-24T13:26:01.742Z,4.40
2023-04-24T13:27:04.672Z,5.30
2023-04-24T13:28:07.858Z,3.80
2023-04-24T13:29:10.963Z,4.60
2023-04-24T13:30:14.550Z,4.40
2023-04-24T13:31:17.343Z,4.70
2023-04-24T13:32:20.352Z,4.50
2023-04-24T13:33:23.508Z,2.20
2023-04-24T13:34:27.536Z,4.18
2023-04-24T13:35:29.920Z,4.90
2023-04-24T13:36:33.408Z,4.10
2023-04-24T13:37:36.257Z,4.20
2023-04-24T13:38:38.565Z,4.91
2023-04-24T13:39:41.855Z,4.60
2023-04-24T13:40:44.863Z,4.40
2023-04-24T13:41:48.655Z,4.70
2023-04-24T13:42:51.729Z,5.90
2023-04-24T13:43:54.447Z,5.80
2023-04-24T13:44:57.202Z,5.00
2023-04-24T13:46:01.700Z,4.73
2023-04-24T13:47:04.504Z,4.10
2023-04-24T13:48:07.072Z,4.82
2023-04-24T13:49:10.551Z,2.90
2023-04-24T13:50:13.430Z,5.50
2023-04-24T13:51:15.797Z,5.40
2023-04-24T13:52:18.386Z,4.10
2023-04-24T13:53:20.951Z,5.00
2023-04-24T13:54:25.182Z,5.90
2023-04-24T13:55:27.661Z,5.00
2023-04-24T13:56:29.939Z,5.80
2023-04-24T13:57:33.730Z,4.70
2023-04-24T13:58:38.330Z,5.90
2023-04-24T13:59:41.852Z,2.80
2023-04-24T14:00:44.285Z,4.60
2023-04-24T14:01:47.155Z,4.90
2023-04-24T14:02:50.368Z,4.40
2023-04-24T14:03:54.389Z,5.60